Time;durP1;ratioP1;P1;durP2;ratioP2;P2;SDS_P1;SDS_P2;PMS_P1;PMS_P2;Temp;Humidity;BMP_temperature;BMP_pressure;BME280_temperature;BME280_humidity;BME280_pressure;Samples;Min_cycle;Max_cycle;Signal;HPM_P1;HPM_P2
2023/10/22 00:01:27;;;;;;;2.33;2.03;;;9.40;99.90;;;;;;5051960;28;20449;-66
2023/10/22 00:03:54;;;;;;;2.33;2.13;;;9.40;99.90;;;;;;5051251;28;20313;-66
2023/10/22 00:06:22;;;;;;;6.15;2.15;;;9.30;99.90;;;;;;5051581;28;20453;-66
2023/10/22 00:08:49;;;;;;;2.50;1.90;;;9.20;99.90;;;;;;5051326;28;20203;-66
2023/10/22 00:11:15;;;;;;;2.50;2.30;;;9.20;99.90;;;;;;5051422;28;20449;-66
2023/10/22 00:13:42;;;;;;;2.85;2.35;;;9.10;99.90;;;;;;5051720;28;20475;-66
2023/10/22 00:16:09;;;;;;;3.25;2.03;;;9.10;99.90;;;;;;5051630;28;20293;-66
2023/10/22 00:18:36;;;;;;;2.45;2.25;;;9.10;99.90;;;;;;5050664;28;20298;-66
2023/10/22 00:21:07;;;;;;;3.95;2.78;;;9.00;99.90;;;;;;5051370;28;20210;-66
2023/10/22 00:23:35;;;;;;;3.45;1.88;;;9.00;99.90;;;;;;5051027;28;20309;-66
2023/10/22 00:26:02;;;;;;;3.35;2.28;;;9.00;99.90;;;;;;5051135;28;20260;-66
2023/10/22 00:28:29;;;;;;;2.85;2.40;;;8.90;99.90;;;;;;5050962;28;20213;-66
2023/10/22 00:30:57;;;;;;;2.73;2.53;;;8.90;99.90;;;;;;5051419;28;20213;-66
2023/10/22 00:33:24;;;;;;;2.85;2.50;;;8.90;99.90;;;;;;5050887;28;20469;-66
2023/10/22 00:35:58;;;;;;;2.43;2.23;;;8.90;99.90;;;;;;5051209;28;20238;-66
2023/10/22 00:38:26;;;;;;;4.25;3.45;;;8.80;99.90;;;;;;5050652;28;20444;-66
2023/10/22 00:40:54;;;;;;;2.97;2.33;;;8.80;99.90;;;;;;5050832;28;20207;-66
2023/10/22 00:43:21;;;;;;;3.00;2.67;;;8.80;99.90;;;;;;5051055;28;20226;-66
2023/10/22 00:45:49;;;;;;;2.90;2.70;;;8.80;99.90;;;;;;5050823;28;20682;-66
2023/10/22 00:48:18;;;;;;;2.92;2.72;;;8.70;99.90;;;;;;5050683;28;20449;-65
2023/10/22 00:50:45;;;;;;;2.65;2.42;;;8.70;99.90;;;;;;5049498;28;20238;-66
2023/10/22 00:53:15;;;;;;;5.35;3.85;;;8.70;99.90;;;;;;5050965;28;20233;-66
2023/10/22 00:55:45;;;;;;;3.00;2.80;;;8.70;99.90;;;;;;5051170;28;20313;-66
2023/10/22 00:58:14;;;;;;;4.90;3.20;;;8.70;99.90;;;;;;5051056;28;20782;-66
2023/10/22 01:00:40;;;;;;;3.22;2.60;;;8.60;99.90;;;;;;5050765;28;20230;-66
2023/10/22 01:03:07;;;;;;;4.50;2.33;;;8.60;99.90;;;;;;5050554;28;20909;-66
2023/10/22 01:05:36;;;;;;;2.40;2.20;;;8.50;99.90;;;;;;5050779;28;20297;-66
2023/10/22 01:08:04;;;;;;;2.40;2.20;;;8.50;99.90;;;;;;5050853;28;20203;-66
2023/10/22 01:10:30;;;;;;;2.00;1.90;;;8.50;99.90;;;;;;5050840;28;20203;-66
2023/10/22 01:12:58;;;;;;;2.35;2.17;;;8.50;99.90;;;;;;5050721;28;20214;-66
2023/10/22 01:15:27;;;;;;;2.67;2.53;;;8.40;99.90;;;;;;5050806;28;20592;-66
2023/10/22 01:17:55;;;;;;;3.30;3.10;;;8.40;99.90;;;;;;5050475;28;20646;-66
2023/10/22 01:20:22;;;;;;;1.83;1.73;;;8.40;99.90;;;;;;5050466;28;20233;-66
2023/10/22 01:22:49;;;;;;;2.85;2.58;;;8.30;99.90;;;;;;5050577;28;20206;-66
2023/10/22 01:25:18;;;;;;;2.10;2.00;;;8.30;99.90;;;;;;5050531;28;20606;-66
2023/10/22 01:27:44;;;;;;;3.20;3.00;;;8.30;99.90;;;;;;5050642;28;20297;-66
2023/10/22 01:30:12;;;;;;;5.07;4.88;;;8.30;99.90;;;;;;5050259;28;20203;-66
2023/10/22 01:32:38;;;;;;;2.45;2.15;;;8.20;99.90;;;;;;5050437;28;20298;-66
2023/10/22 01:35:06;;;;;;;2.95;2.45;;;8.20;99.90;;;;;;5050676;28;20222;-66
2023/10/22 01:37:35;;;;;;;2.75;2.55;;;8.20;99.90;;;;;;5050500;28;20264;-66
2023/10/22 01:40:03;;;;;;;2.65;2.47;;;8.10;99.90;;;;;;5050224;28;20262;-66
2023/10/22 01:42:31;;;;;;;3.65;2.65;;;8.10;99.90;;;;;;5050497;28;20209;-66
2023/10/22 01:44:58;;;;;;;2.13;2.00;;;8.10;99.90;;;;;;5075511;22;20230;-63
2023/10/22 01:47:25;;;;;;;2.30;2.10;;;8.10;99.90;;;;;;5071880;28;20233;-63
2023/10/22 01:49:52;;;;;;;2.45;2.25;;;8.00;99.90;;;;;;5070090;28;20206;-63
2023/10/22 01:52:19;;;;;;;2.80;2.60;;;8.00;99.90;;;;;;5070900;28;20876;-63
2023/10/22 01:54:46;;;;;;;3.20;3.00;;;8.00;99.90;;;;;;5070755;28;20686;-63
2023/10/22 01:57:13;;;;;;;2.60;2.50;;;8.00;99.90;;;;;;5070715;28;20304;-63
2023/10/22 01:59:41;;;;;;;2.75;2.55;;;8.00;99.90;;;;;;5070439;28;20738;-64
2023/10/22 02:02:08;;;;;;;4.45;2.40;;;8.00;99.90;;;;;;5074347;28;20233;-63
2023/10/22 02:04:35;;;;;;;4.63;2.85;;;8.00;99.90;;;;;;5073678;28;20748;-64
2023/10/22 02:07:02;;;;;;;6.10;2.95;;;8.00;99.90;;;;;;5074400;28;20226;-63
2023/10/22 02:09:30;;;;;;;2.63;2.42;;;8.00;99.90;;;;;;5074155;28;20198;-63
2023/10/22 02:11:57;;;;;;;2.67;2.58;;;8.00;99.90;;;;;;5074187;28;20206;-64
2023/10/22 02:14:25;;;;;;;3.78;3.47;;;8.00;99.90;;;;;;5074294;28;20214;-63
2023/10/22 02:16:53;;;;;;;2.80;2.60;;;8.00;99.90;;;;;;5074219;28;20317;-63
2023/10/22 02:19:20;;;;;;;7.93;3.65;;;8.00;99.90;;;;;;5073727;28;20320;-63
2023/10/22 02:21:47;;;;;;;2.60;2.40;;;7.90;99.90;;;;;;5074076;28;20205;-64
2023/10/22 02:24:14;;;;;;;2.85;2.65;;;7.90;99.90;;;;;;5074028;28;20241;-63
2023/10/22 02:26:41;;;;;;;3.47;2.90;;;7.80;99.90;;;;;;5074070;28;20229;-63
2023/10/22 02:29:08;;;;;;;3.92;3.30;;;7.80;99.90;;;;;;5073385;28;20726;-63
2023/10/22 02:31:35;;;;;;;4.25;3.28;;;7.80;99.90;;;;;;5073817;28;20296;-64
2023/10/22 02:34:05;;;;;;;2.58;2.38;;;7.70;99.90;;;;;;5073876;28;20213;-64
2023/10/22 02:36:32;;;;;;;6.05;3.67;;;7.70;99.90;;;;;;5073631;28;20226;-63
2023/10/22 02:38:59;;;;;;;2.90;2.70;;;7.70;99.90;;;;;;5073395;28;20297;-63
2023/10/22 02:41:26;;;;;;;2.85;2.60;;;7.70;99.90;;;;;;5073858;28;20222;-63
2023/10/22 02:43:53;;;;;;;3.05;2.83;;;7.70;99.90;;;;;;5073440;28;20216;-64
2023/10/22 02:46:20;;;;;;;2.80;2.60;;;7.60;99.90;;;;;;5073483;28;20320;-63
2023/10/22 02:48:47;;;;;;;2.63;2.47;;;7.60;99.90;;;;;;5073327;28;20209;-63
2023/10/22 02:51:15;;;;;;;3.42;3.13;;;7.60;99.90;;;;;;5073521;28;20206;-63
2023/10/22 02:53:44;;;;;;;3.60;3.30;;;7.60;99.90;;;;;;5073397;28;20222;-62
2023/10/22 02:56:11;;;;;;;5.03;3.55;;;7.70;99.90;;;;;;5073545;28;20601;-63
2023/10/22 02:58:40;;;;;;;3.13;2.50;;;7.60;99.90;;;;;;5073253;28;20628;-63
2023/10/22 03:01:07;;;;;;;2.45;2.35;;;7.60;99.90;;;;;;5073302;28;20225;-64
2023/10/22 03:03:39;;;;;;;3.08;2.88;;;7.60;99.90;;;;;;5073505;28;20367;-63
2023/10/22 03:06:06;;;;;;;4.10;2.65;;;7.50;99.90;;;;;;5073368;28;20225;-64
2023/10/22 03:08:34;;;;;;;2.55;2.35;;;7.50;99.90;;;;;;5073334;28;20240;-64
2023/10/22 03:11:01;;;;;;;2.63;2.42;;;7.50;99.90;;;;;;5073745;28;20213;-63
2023/10/22 03:13:28;;;;;;;3.50;3.20;;;7.50;99.90;;;;;;5072332;28;20214;-63
2023/10/22 03:15:55;;;;;;;2.83;2.55;;;7.40;99.90;;;;;;5073225;28;20316;-63
2023/10/22 03:18:22;;;;;;;3.85;2.30;;;7.40;99.90;;;;;;5072918;28;20296;-63
2023/10/22 03:20:50;;;;;;;2.95;2.65;;;7.40;99.90;;;;;;5072953;28;20615;-63
2023/10/22 03:23:17;;;;;;;2.58;2.35;;;7.40;99.90;;;;;;5073177;28;20572;-62
2023/10/22 03:25:45;;;;;;;3.25;2.97;;;7.40;99.90;;;;;;5073044;28;20252;-63
2023/10/22 03:28:12;;;;;;;2.67;2.58;;;7.30;99.90;;;;;;5072666;28;20210;-63
2023/10/22 03:30:39;;;;;;;3.55;2.80;;;7.30;99.90;;;;;;5072618;28;20201;-63
2023/10/22 03:33:05;;;;;;;2.60;2.40;;;7.30;99.90;;;;;;5072605;28;20585;-63
2023/10/22 03:35:35;;;;;;;3.78;3.47;;;7.30;99.90;;;;;;5072789;28;20312;-63
2023/10/22 03:38:02;;;;;;;3.15;2.85;;;7.20;99.90;;;;;;5072677;28;20634;-63
2023/10/22 03:40:29;;;;;;;2.80;2.28;;;7.20;99.90;;;;;;5072576;28;20279;-62
2023/10/22 03:42:57;;;;;;;3.50;3.30;;;7.20;99.90;;;;;;5072448;28;20297;-63
2023/10/22 03:45:24;;;;;;;3.42;2.90;;;7.10;99.90;;;;;;5072256;28;20240;-64
2023/10/22 03:47:51;;;;;;;3.30;2.55;;;7.10;99.90;;;;;;5072230;28;20205;-64
2023/10/22 03:50:18;;;;;;;2.90;2.63;;;7.10;99.90;;;;;;5072391;28;20212;-63
2023/10/22 03:52:44;;;;;;;3.28;3.08;;;7.00;99.90;;;;;;5072092;28;20679;-63
2023/10/22 03:55:11;;;;;;;3.53;3.22;;;7.10;99.90;;;;;;5072313;28;20312;-62
2023/10/22 03:57:38;;;;;;;2.95;2.65;;;7.10;99.90;;;;;;5071798;28;20210;-62
2023/10/22 04:00:07;;;;;;;2.53;2.42;;;7.00;99.90;;;;;;5071493;28;20237;-64
2023/10/22 04:02:34;;;;;;;3.53;2.80;;;7.00;99.90;;;;;;5072080;28;20220;-63
2023/10/22 04:05:01;;;;;;;2.85;2.65;;;7.00;99.90;;;;;;5071657;28;20226;-63
2023/10/22 04:07:30;;;;;;;2.67;2.35;;;6.90;99.90;;;;;;5072047;28;20216;-64
2023/10/22 04:09:57;;;;;;;2.50;2.40;;;6.90;99.90;;;;;;5071784;28;20201;-64
2023/10/22 04:12:24;;;;;;;2.78;2.58;;;6.90;99.90;;;;;;5071700;28;20220;-63
2023/10/22 04:14:51;;;;;;;4.07;3.78;;;6.90;99.90;;;;;;5072133;28;20604;-63
2023/10/22 04:17:19;;;;;;;2.28;2.13;;;6.90;99.90;;;;;;5071816;28;20285;-63
2023/10/22 04:19:46;;;;;;;2.80;2.60;;;6.90;99.90;;;;;;5071731;28;20649;-63
2023/10/22 04:22:12;;;;;;;3.22;3.03;;;6.80;99.90;;;;;;5071771;28;20202;-63
2023/10/22 04:24:40;;;;;;;2.78;2.10;;;6.80;99.90;;;;;;5071612;28;20647;-63
2023/10/22 04:27:06;;;;;;;4.95;2.20;;;6.70;99.90;;;;;;5071513;28;20694;-63
2023/10/22 04:29:33;;;;;;;5.43;2.83;;;6.70;99.90;;;;;;5071513;28;20210;-64
2023/10/22 04:32:00;;;;;;;2.53;2.20;;;6.70;99.90;;;;;;5071520;28;20212;-63
2023/10/22 04:34:28;;;;;;;2.45;2.25;;;6.60;99.90;;;;;;5071695;28;20202;-64
2023/10/22 04:36:55;;;;;;;2.35;2.25;;;6.60;99.90;;;;;;5071450;28;20221;-63
2023/10/22 04:39:24;;;;;;;3.17;2.90;;;6.60;99.90;;;;;;5071152;28;20218;-62
2023/10/22 04:41:51;;;;;;;2.40;2.30;;;6.60;99.90;;;;;;5071636;28;20316;-63
2023/10/22 04:44:19;;;;;;;3.53;2.60;;;6.60;99.90;;;;;;5071600;28;20301;-64
2023/10/22 04:46:45;;;;;;;5.45;2.53;;;6.60;99.90;;;;;;5071048;28;20236;-63
2023/10/22 04:49:12;;;;;;;2.75;2.55;;;6.60;99.90;;;;;;5070944;28;20297;-63
2023/10/22 04:51:40;;;;;;;2.97;2.47;;;6.60;99.90;;;;;;5071308;28;20204;-63
2023/10/22 04:54:07;;;;;;;3.55;3.15;;;6.60;99.90;;;;;;5071148;28;20197;-64
2023/10/22 04:56:35;;;;;;;2.90;2.50;;;6.50;99.90;;;;;;5071337;28;20226;-63
2023/10/22 04:59:02;;;;;;;3.13;2.38;;;6.50;99.90;;;;;;5070915;28;20205;-63
2023/10/22 05:01:29;;;;;;;3.45;3.25;;;6.50;99.90;;;;;;5071501;28;20257;-63
2023/10/22 05:03:56;;;;;;;2.50;2.40;;;6.50;99.90;;;;;;5071117;28;20593;-63
2023/10/22 05:06:23;;;;;;;3.90;3.00;;;6.40;99.90;;;;;;5071070;28;20230;-63
2023/10/22 05:08:51;;;;;;;2.70;2.05;;;6.40;99.90;;;;;;5071037;28;20208;-64
2023/10/22 05:11:18;;;;;;;4.18;2.70;;;6.40;99.90;;;;;;5070902;28;20693;-63
2023/10/22 05:13:45;;;;;;;2.60;2.40;;;6.40;99.90;;;;;;5071202;28;20296;-62
2023/10/22 05:16:15;;;;;;;2.60;2.50;;;6.40;99.90;;;;;;5070611;28;20728;-63
2023/10/22 05:18:42;;;;;;;5.55;3.30;;;6.30;99.90;;;;;;5070561;28;20240;-64
2023/10/22 05:21:09;;;;;;;2.45;2.05;;;6.30;99.90;;;;;;5070820;28;20313;-64
2023/10/22 05:23:36;;;;;;;2.95;2.75;;;6.30;99.90;;;;;;5071413;28;20208;-64
2023/10/22 05:26:06;;;;;;;5.82;3.20;;;6.30;99.90;;;;;;5070867;28;20755;-64
2023/10/22 05:28:33;;;;;;;3.13;2.50;;;6.20;99.90;;;;;;5070546;28;20202;-64
2023/10/22 05:31:00;;;;;;;2.40;2.17;;;6.20;99.90;;;;;;5071037;28;20589;-63
2023/10/22 05:33:27;;;;;;;2.35;2.15;;;6.20;99.90;;;;;;5070660;28;20210;-63
2023/10/22 05:35:54;;;;;;;2.15;1.90;;;6.20;99.90;;;;;;5072534;28;20255;-64
2023/10/22 05:38:20;;;;;;;2.08;1.98;;;6.20;99.90;;;;;;5074119;28;20297;-64
2023/10/22 05:40:47;;;;;;;6.25;2.90;;;6.20;99.90;;;;;;5074240;28;20253;-64
2023/10/22 05:43:16;;;;;;;2.25;1.70;;;6.20;99.90;;;;;;5074829;28;20209;-64
2023/10/22 05:45:43;;;;;;;3.50;3.30;;;6.20;99.90;;;;;;5074502;28;20701;-64
2023/10/22 05:48:10;;;;;;;4.13;2.40;;;6.20;99.90;;;;;;5067477;28;20293;-64
2023/10/22 05:50:39;;;;;;;2.00;1.80;;;6.20;99.90;;;;;;5054471;28;20230;-64
2023/10/22 05:53:05;;;;;;;3.00;2.40;;;6.10;99.90;;;;;;5053590;28;20672;-64
2023/10/22 05:55:32;;;;;;;3.45;3.15;;;6.20;99.90;;;;;;5054185;28;20306;-64
2023/10/22 05:57:59;;;;;;;4.05;2.33;;;6.20;99.90;;;;;;5054023;28;20210;-64
2023/10/22 06:00:27;;;;;;;1.90;1.58;;;6.20;99.90;;;;;;5053878;28;20208;-64
2023/10/22 06:02:54;;;;;;;2.10;2.00;;;6.20;99.90;;;;;;5054182;28;20210;-63
2023/10/22 06:05:21;;;;;;;2.50;2.30;;;6.10;99.90;;;;;;5054235;28;20233;-64
2023/10/22 06:07:48;;;;;;;3.35;3.05;;;6.10;99.90;;;;;;5054042;28;20210;-64
2023/10/22 06:10:15;;;;;;;2.55;2.35;;;6.10;99.90;;;;;;5053786;28;20217;-64
2023/10/22 06:12:42;;;;;;;2.10;2.00;;;6.10;99.90;;;;;;5054062;28;20217;-64
2023/10/22 06:15:09;;;;;;;3.47;2.33;;;6.10;99.90;;;;;;5053854;28;20227;-64
2023/10/22 06:17:38;;;;;;;2.22;2.03;;;6.10;99.90;;;;;;5053996;28;20234;-64
2023/10/22 06:20:06;;;;;;;2.42;2.20;;;6.10;99.90;;;;;;5053868;28;20202;-64
2023/10/22 06:22:32;;;;;;;4.00;2.50;;;6.10;99.90;;;;;;5053171;28;20709;-64
2023/10/22 06:25:00;;;;;;;2.47;2.30;;;6.10;99.90;;;;;;5054147;28;20210;-64
2023/10/22 06:27:27;;;;;;;2.55;2.35;;;6.10;99.90;;;;;;5054016;28;20214;-64
2023/10/22 06:29:54;;;;;;;3.28;1.98;;;6.10;99.90;;;;;;5053776;28;20237;-63
2023/10/22 06:32:21;;;;;;;1.67;1.58;;;6.10;99.90;;;;;;5053868;28;20289;-64
2023/10/22 06:34:49;;;;;;;6.22;3.15;;;6.20;99.90;;;;;;5053785;28;20210;-64
2023/10/22 06:37:16;;;;;;;3.67;3.38;;;6.20;99.90;;;;;;5053868;28;20210;-64
2023/10/22 06:39:43;;;;;;;4.60;4.30;;;6.20;99.90;;;;;;5053585;28;20212;-64
2023/10/22 06:42:10;;;;;;;3.58;3.38;;;6.20;99.90;;;;;;5053693;28;20823;-64
2023/10/22 06:44:41;;;;;;;3.10;2.90;;;6.30;99.90;;;;;;5053501;28;20301;-63
2023/10/22 06:47:08;;;;;;;3.60;3.40;;;6.30;99.90;;;;;;5052422;28;20297;-64
2023/10/22 06:49:35;;;;;;;2.72;2.53;;;6.40;99.90;;;;;;5053340;28;20212;-63
2023/10/22 06:52:04;;;;;;;3.40;3.10;;;6.40;99.90;;;;;;5053154;28;20905;-64
2023/10/22 06:54:30;;;;;;;3.55;2.53;;;6.40;99.90;;;;;;5053307;28;20747;-64
2023/10/22 06:56:57;;;;;;;5.50;3.13;;;6.40;99.90;;;;;;5053081;28;20266;-64
2023/10/22 06:59:24;;;;;;;7.97;3.47;;;6.50;99.90;;;;;;5053283;28;20317;-64
2023/10/22 07:01:51;;;;;;;12.10;11.00;;;6.60;99.90;;;;;;5053046;28;20226;-63
2023/10/22 07:04:18;;;;;;;8.13;7.32;;;6.60;99.90;;;;;;5053540;28;20292;-64
2023/10/22 07:06:46;;;;;;;5.68;5.15;;;6.60;99.90;;;;;;5053094;28;20596;-64
2023/10/22 07:09:14;;;;;;;5.70;5.20;;;6.70;99.90;;;;;;5044567;28;20732;-64
2023/10/22 07:11:40;;;;;;;4.78;4.47;;;6.80;99.90;;;;;;5053301;28;20206;-64
2023/10/22 07:14:07;;;;;;;5.82;5.32;;;6.80;99.90;;;;;;5053117;28;20676;-63
2023/10/22 07:16:34;;;;;;;4.75;4.45;;;6.90;99.90;;;;;;5053071;28;20242;-64
2023/10/22 07:19:01;;;;;;;4.57;3.75;;;7.00;99.90;;;;;;5052703;28;20206;-64
2023/10/22 07:21:28;;;;;;;3.83;3.40;;;7.10;99.90;;;;;;5053118;28;20658;-64
2023/10/22 07:23:54;;;;;;;2.80;2.55;;;7.10;99.90;;;;;;5052873;28;20217;-64
2023/10/22 07:26:23;;;;;;;3.60;3.00;;;7.20;99.90;;;;;;5052618;28;20260;-64
2023/10/22 07:28:49;;;;;;;2.63;2.50;;;7.30;99.90;;;;;;5052642;28;20208;-64
2023/10/22 07:31:17;;;;;;;2.83;2.40;;;7.40;99.90;;;;;;5052732;28;20288;-64
2023/10/22 07:33:44;;;;;;;3.35;2.67;;;7.40;99.90;;;;;;5052779;28;20210;-63
2023/10/22 07:36:11;;;;;;;2.63;2.30;;;7.50;99.90;;;;;;5052557;28;20229;-64
2023/10/22 07:38:40;;;;;;;3.00;2.80;;;7.60;99.90;;;;;;5052107;28;20206;-64
2023/10/22 07:41:13;;;;;;;3.88;1.95;;;7.70;99.90;;;;;;5052074;28;20233;-64
2023/10/22 07:43:42;;;;;;;2.72;2.53;;;7.80;99.90;;;;;;5052530;28;20638;-64
2023/10/22 07:46:10;;;;;;;2.50;2.30;;;7.90;99.90;;;;;;5052170;28;20233;-63
2023/10/22 07:48:37;;;;;;;3.10;2.80;;;8.00;99.90;;;;;;5051963;28;20211;-64
2023/10/22 07:51:11;;;;;;;2.28;2.17;;;8.10;99.90;;;;;;5052231;28;20210;-64
2023/10/22 07:53:38;;;;;;;2.53;2.10;;;8.20;99.90;;;;;;5052521;28;20289;-64
2023/10/22 07:56:05;;;;;;;8.35;2.35;;;8.30;99.90;;;;;;5052018;28;20742;-64
2023/10/22 07:58:32;;;;;;;2.93;2.47;;;8.30;99.90;;;;;;5050278;28;20210;-64
2023/10/22 08:01:00;;;;;;;2.22;2.10;;;8.40;99.90;;;;;;5050877;28;20452;-64
2023/10/22 08:03:28;;;;;;;4.03;2.38;;;8.50;99.90;;;;;;5073172;22;20229;-65
2023/10/22 08:05:55;;;;;;;2.53;2.33;;;8.50;99.90;;;;;;5042513;28;20532;-64
2023/10/22 08:08:22;;;;;;;2.73;2.03;;;8.70;99.90;;;;;;5051275;28;20647;-65
2023/10/22 08:10:49;;;;;;;2.75;2.33;;;8.80;99.90;;;;;;5051949;28;20475;-64
2023/10/22 08:13:16;;;;;;;3.00;2.28;;;8.90;99.90;;;;;;5051045;28;20230;-64
2023/10/22 08:15:43;;;;;;;4.40;2.50;;;9.10;99.90;;;;;;5051439;28;20206;-64
2023/10/22 08:18:11;;;;;;;3.53;2.70;;;9.10;99.90;;;;;;5048449;28;20959;-64
2023/10/22 08:20:38;;;;;;;3.60;2.60;;;9.40;99.90;;;;;;5051154;28;20483;-64
2023/10/22 08:23:05;;;;;;;3.70;2.40;;;9.70;99.90;;;;;;5050848;28;20492;-65
2023/10/22 08:25:32;;;;;;;3.30;1.63;;;9.90;99.90;;;;;;5051277;28;20445;-65
2023/10/22 08:27:58;;;;;;;2.40;1.50;;;10.30;99.90;;;;;;5050306;28;20456;-65
2023/10/22 08:30:25;;;;;;;5.90;1.80;;;10.60;99.90;;;;;;5051208;28;21198;-65
2023/10/22 08:32:52;;;;;;;5.20;2.30;;;10.80;99.90;;;;;;5050381;28;20468;-65
2023/10/22 08:35:22;;;;;;;3.97;1.20;;;11.10;99.90;;;;;;5051329;28;20540;-65
2023/10/22 08:37:50;;;;;;;5.40;1.67;;;11.40;99.90;;;;;;5049875;28;20453;-64
2023/10/22 08:40:17;;;;;;;3.17;1.50;;;11.60;99.90;;;;;;5050822;28;20449;-65
2023/10/22 08:42:46;;;;;;;7.47;1.80;;;11.80;99.90;;;;;;5050474;28;20895;-65
2023/10/22 08:45:13;;;;;;;5.00;1.73;;;12.00;99.90;;;;;;5043458;28;20936;-65
2023/10/22 08:47:40;;;;;;;3.07;2.37;;;12.10;99.90;;;;;;5049909;28;20456;-65
2023/10/22 08:50:11;;;;;;;4.73;1.80;;;12.30;99.90;;;;;;5050508;28;20830;-65
2023/10/22 08:52:40;;;;;;;4.27;2.13;;;12.50;99.90;;;;;;5049896;28;20611;-65
2023/10/22 08:55:08;;;;;;;2.93;1.80;;;12.60;99.90;;;;;;5051160;28;20455;-65
2023/10/22 08:57:36;;;;;;;1.73;1.63;;;12.80;99.90;;;;;;5043460;28;20479;-65
2023/10/22 09:00:09;;;;;;;3.20;1.90;;;12.90;99.90;;;;;;5050621;28;20444;-65
2023/10/22 09:02:37;;;;;;;4.00;1.87;;;13.00;99.90;;;;;;5050052;28;20526;-65
2023/10/22 09:05:04;;;;;;;2.23;1.20;;;13.10;99.90;;;;;;5049668;28;20979;-65
2023/10/22 09:07:54;;;;;;;1.87;1.67;;;13.20;99.90;;;;;;5046996;28;20543;-65
2023/10/22 09:10:28;;;;;;;5.17;2.37;;;13.40;99.90;;;;;;5049597;28;20860;-65
2023/10/22 09:13:01;;;;;;;2.57;2.33;;;13.60;99.90;;;;;;5049610;28;20472;-65
2023/10/22 09:15:30;;;;;;;5.57;1.50;;;13.70;99.90;;;;;;5050415;28;20531;-66
2023/10/22 09:18:02;;;;;;;5.27;2.37;;;13.90;99.90;;;;;;5050415;28;20908;-66
2023/10/22 09:20:30;;;;;;;4.00;1.80;;;14.00;99.90;;;;;;5050324;28;20930;-65
2023/10/22 09:23:14;;;;;;;4.63;3.07;;;14.00;99.90;;;;;;5050455;28;20488;-65
2023/10/22 09:25:41;;;;;;;4.93;1.80;;;14.10;99.90;;;;;;5046329;28;20440;-65
2023/10/22 09:28:20;;;;;;;5.10;1.57;;;14.20;99.90;;;;;;5050610;28;20456;-65
2023/10/22 09:30:47;;;;;;;5.50;1.93;;;14.30;99.90;;;;;;5050814;28;20451;-66
2023/10/22 09:33:17;;;;;;;3.33;1.77;;;14.40;99.90;;;;;;5050368;28;20541;-66
2023/10/22 09:35:59;;;;;;;6.43;1.80;;;14.50;99.90;;;;;;5050181;28;20812;-66
2023/10/22 09:38:44;;;;;;;5.20;2.20;;;14.60;99.90;;;;;;5050048;28;21013;-65
2023/10/22 09:41:13;;;;;;;6.07;2.30;;;14.70;99.90;;;;;;5050367;28;20472;-65
2023/10/22 09:43:40;;;;;;;4.27;1.40;;;14.70;99.90;;;;;;5049796;28;20489;-65
2023/10/22 09:46:07;;;;;;;5.10;1.70;;;14.80;99.90;;;;;;5050099;28;20453;-65
2023/10/22 09:48:36;;;;;;;5.50;2.37;;;14.90;99.90;;;;;;5049600;28;20955;-65
2023/10/22 09:51:05;;;;;;;3.30;1.90;;;15.10;99.90;;;;;;5050553;28;20445;-66
2023/10/22 09:53:39;;;;;;;3.60;1.70;;;15.10;99.90;;;;;;5050049;28;20472;-66
2023/10/22 09:56:09;;;;;;;8.80;1.80;;;15.20;99.90;;;;;;5049972;28;20989;-65
2023/10/22 09:58:43;;;;;;;7.93;2.07;;;15.20;99.90;;;;;;5049559;28;20449;-65
2023/10/22 10:01:11;;;;;;;3.90;1.60;;;15.30;99.90;;;;;;5051255;28;20539;-65
2023/10/22 10:03:38;;;;;;;4.83;2.03;;;15.30;99.90;;;;;;5065883;28;20494;-65
2023/10/22 10:06:07;;;;;;;1.97;1.87;;;15.40;99.90;;;;;;5050127;28;20528;-65
2023/10/22 10:08:36;;;;;;;6.47;2.10;;;15.50;99.90;;;;;;5057074;28;20448;-65
2023/10/22 10:11:03;;;;;;;4.63;1.70;;;15.60;99.90;;;;;;5048264;28;20451;-65
2023/10/22 10:13:32;;;;;;;4.20;1.70;;;15.80;99.90;;;;;;5055407;28;20457;-65
2023/10/22 10:16:01;;;;;;;4.00;2.80;;;15.90;99.90;;;;;;5051840;28;20522;-65
2023/10/22 10:18:59;;;;;;;3.67;1.83;;;16.00;99.90;;;;;;5061947;28;20802;-65
2023/10/22 10:21:47;;;;;;;4.23;1.97;;;16.00;99.90;;;;;;5061877;28;20618;-65
2023/10/22 10:24:20;;;;;;;5.90;1.93;;;16.00;99.90;;;;;;5060915;28;20844;-65
2023/10/22 10:26:48;;;;;;;3.10;2.10;;;16.00;99.90;;;;;;5063778;28;20495;-64
2023/10/22 10:29:18;;;;;;;4.73;1.63;;;15.90;99.90;;;;;;5058351;28;20444;-65
2023/10/22 10:31:47;;;;;;;4.43;2.33;;;15.80;99.90;;;;;;5055533;28;20437;-65
2023/10/22 10:34:22;;;;;;;8.07;1.90;;;15.70;99.90;;;;;;5063106;28;20449;-65
2023/10/22 10:36:51;;;;;;;8.27;2.57;;;15.70;99.90;;;;;;5063240;28;20459;-65
2023/10/22 10:39:37;;;;;;;3.67;1.97;;;15.60;99.90;;;;;;5057581;28;21092;-65
2023/10/22 10:42:04;;;;;;;2.33;1.53;;;15.60;99.90;;;;;;5051380;28;20488;-65
2023/10/22 10:44:33;;;;;;;2.30;1.67;;;15.60;99.90;;;;;;5061050;28;20934;-65
2023/10/22 10:47:40;;;;;;;2.73;1.20;;;15.60;99.90;;;;;;5060657;28;20441;-65
2023/10/22 10:50:10;;;;;;;2.10;1.83;;;15.70;99.90;;;;;;5040990;28;20491;-65
2023/10/22 10:53:02;;;;;;;4.97;1.73;;;15.80;99.90;;;;;;5063437;28;20531;-66
2023/10/22 10:55:32;;;;;;;6.83;1.87;;;15.90;99.90;;;;;;5069048;28;20440;-66
2023/10/22 10:58:00;;;;;;;4.97;1.70;;;15.90;99.90;;;;;;5041184;28;20510;-66
2023/10/22 11:00:30;;;;;;;2.40;2.20;;;15.90;99.90;;;;;;5062396;28;20447;-64
2023/10/22 11:02:59;;;;;;;4.83;1.87;;;15.90;99.90;;;;;;5056145;28;20486;-64
2023/10/22 11:05:36;;;;;;;3.10;1.90;;;16.00;99.90;;;;;;5056361;28;20445;-64
2023/10/22 11:08:04;;;;;;;5.43;1.83;;;16.00;99.90;;;;;;5041256;28;20810;-64
2023/10/22 11:10:31;;;;;;;4.07;3.00;;;16.10;99.90;;;;;;5064046;28;20448;-64
2023/10/22 11:13:03;;;;;;;7.53;1.90;;;16.30;99.90;;;;;;5064069;28;20536;-64
2023/10/22 11:15:36;;;;;;;4.47;2.77;;;16.40;99.90;;;;;;5055134;28;20441;-64
2023/10/22 11:18:05;;;;;;;7.13;2.00;;;16.60;99.90;;;;;;5040909;28;20956;-64
2023/10/22 11:20:32;;;;;;;5.60;1.67;;;16.80;99.90;;;;;;5063857;28;20449;-65
2023/10/22 11:22:59;;;;;;;8.33;2.40;;;17.00;99.90;;;;;;5064037;28;20533;-65
2023/10/22 11:25:27;;;;;;;4.40;1.23;;;17.10;99.90;;;;;;5056096;28;20544;-64
2023/10/22 11:27:54;;;;;;;12.00;2.40;;;17.10;99.90;;;;;;5068439;28;20448;-64
2023/10/22 11:30:39;;;;;;;4.37;2.50;;;17.10;99.20;;;;;;5058614;28;20505;-64
2023/10/22 11:33:07;;;;;;;5.30;2.23;;;17.20;99.90;;;;;;5058233;28;20489;-65
2023/10/22 11:35:37;;;;;;;6.00;3.13;;;17.40;99.90;;;;;;5068155;28;20447;-64
2023/10/22 11:38:04;;;;;;;5.03;2.00;;;17.50;99.90;;;;;;5055445;28;20440;-65
2023/10/22 11:40:34;;;;;;;6.13;2.43;;;17.60;99.30;;;;;;5063109;28;20809;-65
2023/10/22 11:43:04;;;;;;;2.30;1.80;;;17.70;99.10;;;;;;5064182;28;20498;-64
2023/10/22 11:45:33;;;;;;;5.27;2.00;;;17.70;99.40;;;;;;5054983;28;20449;-65
2023/10/22 11:48:16;;;;;;;2.47;1.70;;;17.90;99.90;;;;;;5041555;28;21139;-65
2023/10/22 11:50:45;;;;;;;5.47;1.90;;;18.10;99.10;;;;;;5059457;28;20542;-64
2023/10/22 11:53:12;;;;;;;3.60;1.60;;;18.30;98.20;;;;;;5057233;28;20449;-65
2023/10/22 11:55:39;;;;;;;2.10;1.33;;;18.40;97.40;;;;;;5060796;28;20557;-64
2023/10/22 11:58:17;;;;;;;4.47;1.93;;;18.50;96.10;;;;;;5052087;28;20517;-65
2023/10/22 12:00:44;;;;;;;4.97;1.80;;;18.50;95.60;;;;;;5049922;28;20465;-65
2023/10/22 12:03:11;;;;;;;8.10;1.97;;;18.60;95.60;;;;;;5055557;28;20588;-65
2023/10/22 12:05:39;;;;;;;2.60;1.50;;;18.50;95.80;;;;;;5052792;28;20457;-65
2023/10/22 12:08:06;;;;;;;4.30;1.60;;;18.50;95.80;;;;;;5054410;28;20880;-65
2023/10/22 12:10:33;;;;;;;10.40;2.90;;;18.70;96.40;;;;;;5050009;28;20467;-64
2023/10/22 12:13:00;;;;;;;3.80;1.77;;;18.90;95.70;;;;;;5050752;28;20457;-65
2023/10/22 12:15:27;;;;;;;7.27;3.20;;;19.00;94.50;;;;;;5054330;28;20461;-65
2023/10/22 12:17:54;;;;;;;5.20;1.93;;;18.90;94.20;;;;;;5052606;28;20458;-65
2023/10/22 12:20:21;;;;;;;2.90;1.77;;;18.80;95.10;;;;;;5050426;28;20453;-65
2023/10/22 12:22:49;;;;;;;5.40;1.70;;;18.80;95.10;;;;;;5053217;28;20869;-65
2023/10/22 12:25:16;;;;;;;6.70;1.40;;;18.90;95.40;;;;;;5052833;28;20457;-65
2023/10/22 12:27:44;;;;;;;6.60;2.80;;;18.90;94.50;;;;;;5054124;28;21149;-65
2023/10/22 12:30:11;;;;;;;3.67;1.67;;;19.00;95.50;;;;;;5050232;28;20536;-65
2023/10/22 12:32:38;;;;;;;9.13;1.77;;;19.30;95.60;;;;;;5047009;28;20511;-65
2023/10/22 12:35:06;;;;;;;2.40;1.97;;;19.50;94.90;;;;;;5053722;28;20475;-65
2023/10/22 12:37:33;;;;;;;4.73;2.03;;;19.50;94.40;;;;;;5052790;28;20476;-65
2023/10/22 12:40:01;;;;;;;4.43;2.17;;;19.50;93.70;;;;;;5056795;28;20976;-65
2023/10/22 12:42:27;;;;;;;5.00;1.80;;;19.60;94.10;;;;;;5052268;28;20464;-65
2023/10/22 12:44:54;;;;;;;5.17;1.83;;;19.60;93.10;;;;;;5052974;28;20527;-65
2023/10/22 12:47:21;;;;;;;2.67;1.37;;;19.50;94.00;;;;;;5048970;28;20468;-64
2023/10/22 12:49:48;;;;;;;7.53;2.20;;;19.40;93.10;;;;;;5054434;28;20544;-64
2023/10/22 12:52:15;;;;;;;3.10;2.20;;;19.30;93.50;;;;;;5049724;28;20563;-65
2023/10/22 12:54:43;;;;;;;3.93;1.97;;;19.30;94.20;;;;;;5045546;28;20448;-65
2023/10/22 12:57:11;;;;;;;11.53;2.70;;;19.10;94.60;;;;;;5048259;28;20488;-64
2023/10/22 12:59:39;;;;;;;5.83;2.30;;;18.90;93.50;;;;;;5053901;28;20455;-64